Brightwaters, New York
Current Conditions -  °F | °C
As of 9:53 AM on Thursday 23 Oct 2014 (Local Time) from KFRG Reporting Station
Overcast Overcast  
Wind Chill: 52°   Ceiling: 1900
Heat Index: 52°   Visibility: 10mi
Dew Point: 48°   Wind: 10mph
Humidity: 86%   Direction: 350°N
Pressure: 29.67"   Gusts: 20mph
Location:  40.72°N, 73.27°W
Report Text: KFRG 231353Z 35009G17KT 10SM OVC019 11/09 A2967 RMK AO2 RAE30 SLP046 P0003 T01110089
Loading
Personal Weather Stations






























Interactive Weather Map New forecast layout! Learn more

10-Day Weather Forecast

Advertisements
Track Severe Weather on mobile